createdAt,value
2018-05-14T00:00:54.049Z,10.70
2018-05-14T00:01:54.080Z,14.60
2018-05-14T00:02:53.974Z,13.50
2018-05-14T00:03:54.108Z,14.70
2018-05-14T00:04:54.120Z,15.80
2018-05-14T00:05:54.126Z,16.20
2018-05-14T00:06:54.020Z,15.30
2018-05-14T00:07:54.049Z,15.60
2018-05-14T00:08:54.054Z,15.40
2018-05-14T00:09:54.077Z,17.30
2018-05-14T00:10:54.406Z,19.00
2018-05-14T00:11:54.221Z,16.10
2018-05-14T00:12:54.117Z,15.20
2018-05-14T00:13:54.120Z,14.90
2018-05-14T00:14:54.140Z,13.60
2018-05-14T00:15:54.426Z,14.10
2018-05-14T00:16:54.287Z,14.20
2018-05-14T00:17:54.185Z,16.40
2018-05-14T00:18:54.317Z,15.70
2018-05-14T00:19:54.208Z,15.00
2018-05-14T00:20:54.491Z,15.60
2018-05-14T00:21:54.230Z,14.90
2018-05-14T00:22:54.242Z,15.20
2018-05-14T00:23:54.255Z,15.50
2018-05-14T00:24:54.270Z,20.10
2018-05-14T00:25:54.512Z,15.20
2018-05-14T00:26:54.300Z,15.90
2018-05-14T00:27:54.439Z,15.40
2018-05-14T00:28:54.337Z,16.20
2018-05-14T00:29:54.346Z,17.70
2018-05-14T00:30:54.631Z,16.60
2018-05-14T00:31:54.366Z,17.80
2018-05-14T00:32:54.507Z,16.20
2018-05-14T00:33:54.409Z,17.70
2018-05-14T00:34:54.534Z,17.30
2018-05-14T00:35:54.456Z,16.20
2018-05-14T00:36:54.713Z,16.60
2018-05-14T00:37:54.578Z,18.80
2018-05-14T00:38:54.591Z,16.50
2018-05-14T00:39:54.478Z,16.80
2018-05-14T00:40:54.618Z,16.50
2018-05-14T00:41:54.734Z,15.80
2018-05-14T00:42:54.522Z,14.60
2018-05-14T00:43:54.530Z,15.90
2018-05-14T00:44:54.555Z,14.80
2018-05-14T00:45:54.688Z,15.80
2018-05-14T00:46:54.802Z,15.50
2018-05-14T00:47:54.585Z,15.90
2018-05-14T00:48:54.598Z,16.00
2018-05-14T00:49:54.742Z,16.30
2018-05-14T00:50:54.639Z,16.50
2018-05-14T00:51:54.919Z,15.10
2018-05-14T00:52:54.656Z,14.50
2018-05-14T00:53:54.797Z,14.60
2018-05-14T00:54:54.683Z,14.50
2018-05-14T00:55:54.822Z,14.70
2018-05-14T00:56:54.856Z,14.80
2018-05-14T00:57:54.849Z,15.70
2018-05-14T00:58:54.739Z,15.60
2018-05-14T00:59:54.778Z,16.40
2018-05-14T01:00:54.770Z,16.40
2018-05-14T01:01:54.927Z,16.00
2018-05-14T01:02:54.799Z,19.50
2018-05-14T01:03:54.932Z,16.20
2018-05-14T01:04:54.815Z,17.40
2018-05-14T01:05:54.958Z,15.70
2018-05-14T01:06:54.993Z,15.80
2018-05-14T01:07:54.866Z,15.90
2018-05-14T01:08:54.885Z,16.10
2018-05-14T01:09:54.897Z,17.40
2018-05-14T01:10:54.910Z,18.10
2018-05-14T01:11:55.070Z,17.60
2018-05-14T01:12:55.054Z,16.40
2018-05-14T01:13:54.938Z,15.70
2018-05-14T01:14:54.952Z,18.00
2018-05-14T01:15:54.970Z,15.00
2018-05-14T01:16:55.132Z,15.40
2018-05-14T01:17:55.001Z,15.70
2018-05-14T01:18:55.066Z,17.80
2018-05-14T01:19:55.021Z,17.20
2018-05-14T01:20:55.041Z,16.50
2018-05-14T01:21:55.151Z,15.90
2018-05-14T01:22:55.066Z,16.30
2018-05-14T01:23:55.071Z,15.80
2018-05-14T01:24:55.085Z,15.70
2018-05-14T01:25:55.113Z,13.80
2018-05-14T01:26:55.262Z,13.10
2018-05-14T01:27:55.253Z,13.10
2018-05-14T01:28:55.284Z,11.00
2018-05-14T01:29:55.160Z,13.00
2018-05-14T01:30:55.291Z,11.10
2018-05-14T01:31:55.192Z,13.50
2018-05-14T01:32:55.295Z,11.40
2018-05-14T01:33:55.213Z,15.70
2018-05-14T01:34:55.219Z,13.30
2018-05-14T01:35:55.240Z,10.80
2018-05-14T01:36:55.253Z,11.90
2018-05-14T01:37:55.358Z,15.60
2018-05-14T01:38:55.274Z,13.20
2018-05-14T01:39:55.412Z,14.50
2018-05-14T01:40:55.424Z,12.60
2018-05-14T01:41:55.325Z,11.00
2018-05-14T01:42:55.486Z,12.60
2018-05-14T01:43:55.469Z,11.60
2018-05-14T01:44:55.477Z,13.40
2018-05-14T01:45:55.384Z,11.10
2018-05-14T01:46:55.502Z,10.30
2018-05-14T01:47:55.490Z,10.30
2018-05-14T01:48:55.411Z,14.10
2018-05-14T01:49:55.422Z,13.70
2018-05-14T01:50:55.443Z,11.60
2018-05-14T01:51:55.443Z,12.80
2018-05-14T01:52:55.745Z,14.20
2018-05-14T01:53:55.596Z,14.60
2018-05-14T01:54:55.610Z,17.20
2018-05-14T01:55:55.494Z,14.00
2018-05-14T01:56:55.516Z,15.20
2018-05-14T01:57:55.623Z,11.40
2018-05-14T01:58:55.661Z,12.20
2018-05-14T01:59:55.673Z,11.00
2018-05-14T02:00:55.562Z,14.70
2018-05-14T02:01:55.583Z,11.10
2018-05-14T02:02:55.690Z,10.40
2018-05-14T02:03:55.608Z,10.90
2018-05-14T02:04:55.742Z,13.30
2018-05-14T02:05:55.757Z,9.50
2018-05-14T02:06:55.683Z,10.20
2018-05-14T02:07:55.778Z,10.80
2018-05-14T02:08:55.944Z,8.60
2018-05-14T02:09:55.677Z,10.10
2018-05-14T02:10:55.690Z,11.70
2018-05-14T02:11:55.703Z,9.40
2018-05-14T02:12:55.845Z,11.40
2018-05-14T02:13:55.960Z,13.00
2018-05-14T02:14:55.750Z,12.50
2018-05-14T02:15:55.756Z,9.60
2018-05-14T02:16:55.777Z,8.70
2018-05-14T02:17:55.911Z,8.40
2018-05-14T02:18:55.902Z,12.30
2018-05-14T02:19:55.809Z,10.50
2018-05-14T02:20:55.821Z,12.70
2018-05-14T02:21:55.846Z,13.40
2018-05-14T02:22:55.974Z,9.80
2018-05-14T02:23:56.023Z,9.60
2018-05-14T02:24:55.887Z,11.20
2018-05-14T02:25:56.012Z,12.60
2018-05-14T02:26:55.910Z,9.80
2018-05-14T02:27:55.916Z,10.70
2018-05-14T02:28:56.201Z,15.50
2018-05-14T02:29:56.064Z,11.10
2018-05-14T02:30:56.076Z,13.70
2018-05-14T02:31:56.095Z,11.80
2018-05-14T02:32:55.976Z,10.70
2018-05-14T02:33:56.216Z,15.30
2018-05-14T02:34:56.019Z,14.70
2018-05-14T02:35:56.143Z,17.00
2018-05-14T02:36:56.036Z,16.00
2018-05-14T02:37:56.170Z,17.10
2018-05-14T02:38:56.206Z,21.90
2018-05-14T02:39:56.073Z,21.50
2018-05-14T02:40:56.208Z,22.90
2018-05-14T02:41:56.229Z,20.10
2018-05-14T02:42:56.236Z,23.20
2018-05-14T02:43:56.271Z,20.60
2018-05-14T02:44:56.143Z,22.00
2018-05-14T02:45:56.164Z,23.30
2018-05-14T02:46:56.290Z,21.30
2018-05-14T02:47:56.187Z,17.80
2018-05-14T02:48:56.416Z,23.50
2018-05-14T02:49:56.213Z,22.50
2018-05-14T02:50:56.210Z,21.00
2018-05-14T02:51:56.245Z,21.30
2018-05-14T02:52:56.368Z,21.90
2018-05-14T02:53:56.403Z,21.40
2018-05-14T02:54:56.277Z,23.80
2018-05-14T02:55:56.281Z,21.60
2018-05-14T02:56:56.298Z,24.40
2018-05-14T02:57:56.541Z,21.50
2018-05-14T02:58:56.324Z,22.20
2018-05-14T02:59:56.442Z,22.80
2018-05-14T03:00:56.362Z,23.60
2018-05-14T03:01:56.490Z,20.00
2018-05-14T03:02:56.412Z,25.60
2018-05-14T03:03:56.397Z,26.00
2018-05-14T03:04:56.539Z,28.50
2018-05-14T03:05:56.519Z,27.10
2018-05-14T03:06:56.555Z,31.30
2018-05-14T03:07:56.442Z,29.20
2018-05-14T03:08:56.464Z,27.20
2018-05-14T03:09:56.598Z,27.00
2018-05-14T03:10:56.601Z,25.40
2018-05-14T03:11:56.623Z,29.70
2018-05-14T03:13:56.647Z,27.70
2018-05-14T03:14:56.658Z,26.30
2018-05-14T03:15:56.606Z,28.20
2018-05-14T03:16:56.686Z,31.50
2018-05-14T03:17:56.578Z,28.80
2018-05-14T03:18:56.713Z,34.70
2018-05-14T03:19:56.734Z,27.00
2018-05-14T03:20:56.716Z,27.60
2018-05-14T03:21:56.755Z,29.60
2018-05-14T03:22:56.775Z,33.30
2018-05-14T03:23:56.780Z,28.80
2018-05-14T03:24:56.801Z,28.60
2018-05-14T03:25:56.816Z,25.50
2018-05-14T03:26:56.754Z,28.50
2018-05-14T03:27:56.714Z,26.30
2018-05-14T03:28:56.729Z,30.70
2018-05-14T03:29:56.863Z,26.70
2018-05-14T03:30:56.879Z,28.00
2018-05-14T03:31:56.875Z,29.80
2018-05-14T03:32:56.789Z,29.10
2018-05-14T03:33:56.918Z,29.30
2018-05-14T03:34:56.808Z,28.30
2018-05-14T03:35:56.947Z,30.80
2018-05-14T03:36:56.936Z,31.60
2018-05-14T03:37:56.855Z,30.00
2018-05-14T03:38:56.990Z,29.60
2018-05-14T03:39:57.003Z,29.40
2018-05-14T03:40:57.012Z,30.00
2018-05-14T03:41:57.132Z,30.30
2018-05-14T03:42:57.039Z,33.80
2018-05-14T03:43:57.058Z,36.70
2018-05-14T03:44:56.938Z,35.50
2018-05-14T03:45:57.081Z,35.80
2018-05-14T03:46:57.248Z,34.70
2018-05-14T03:47:56.977Z,40.60
2018-05-14T03:48:57.122Z,41.10
2018-05-14T03:49:57.007Z,40.90
2018-05-14T03:50:57.028Z,40.70
2018-05-14T03:51:57.141Z,38.60
2018-05-14T03:52:57.172Z,37.70
2018-05-14T03:53:57.193Z,37.40
2018-05-14T03:54:57.078Z,40.00
2018-05-14T03:55:57.095Z,40.20
2018-05-14T03:56:57.333Z,37.00
2018-05-14T03:57:57.118Z,37.50
2018-05-14T03:58:57.260Z,38.10
2018-05-14T03:59:57.145Z,38.70
2018-05-14T04:00:57.157Z,41.10
2018-05-14T04:01:57.300Z,42.00
2018-05-14T04:02:57.288Z,34.30
2018-05-14T04:03:57.319Z,35.70
2018-05-14T04:04:57.340Z,34.70
2018-05-14T04:05:57.347Z,33.20
2018-05-14T04:06:57.234Z,33.00
2018-05-14T04:07:57.474Z,34.60
2018-05-14T04:08:57.258Z,34.50
2018-05-14T04:09:57.273Z,32.10
2018-05-14T04:10:57.416Z,33.10
2018-05-14T04:11:57.304Z,32.00
2018-05-14T04:12:57.598Z,29.40
2018-05-14T04:13:57.454Z,30.10
2018-05-14T04:14:57.349Z,31.30
2018-05-14T04:15:57.480Z,32.50
2018-05-14T04:16:57.494Z,30.10
2018-05-14T04:17:57.492Z,35.40
2018-05-14T04:18:57.399Z,29.10
2018-05-14T04:19:57.417Z,28.10
2018-05-14T04:20:57.430Z,27.70
2018-05-14T04:21:57.570Z,28.60
2018-05-14T04:22:57.574Z,30.30
2018-05-14T04:23:57.739Z,29.70
2018-05-14T04:24:57.477Z,31.00
2018-05-14T04:25:57.487Z,28.90
2018-05-14T04:26:57.502Z,30.00
2018-05-14T04:27:57.641Z,28.70
2018-05-14T04:28:57.683Z,28.50
2018-05-14T04:29:57.552Z,30.30
2018-05-14T04:30:57.560Z,26.70
2018-05-14T04:31:57.697Z,27.70
2018-05-14T04:32:57.586Z,29.00
2018-05-14T04:33:57.701Z,29.90
2018-05-14T04:34:57.744Z,25.70
2018-05-14T04:35:57.631Z,28.40
2018-05-14T04:36:57.768Z,27.90
2018-05-14T04:37:57.649Z,26.70
2018-05-14T04:38:57.892Z,31.20
2018-05-14T04:39:57.801Z,29.30
2018-05-14T04:40:57.822Z,29.30
2018-05-14T04:41:57.831Z,29.30
2018-05-14T04:42:57.724Z,27.90
2018-05-14T04:43:57.856Z,29.80
2018-05-14T04:44:57.972Z,28.60
2018-05-14T04:45:57.764Z,28.20
2018-05-14T04:46:57.900Z,29.30
2018-05-14T04:47:57.914Z,28.90
2018-05-14T04:48:57.923Z,28.80
2018-05-14T04:49:58.042Z,24.90
2018-05-14T04:50:57.825Z,27.90
2018-05-14T04:51:57.966Z,28.20
2018-05-14T04:52:57.852Z,29.40
2018-05-14T04:53:57.871Z,24.20
2018-05-14T04:54:58.056Z,27.30
2018-05-14T04:55:57.897Z,28.20
2018-05-14T04:56:57.905Z,31.10
2018-05-14T04:57:58.047Z,31.60
2018-05-14T04:58:58.059Z,29.50
2018-05-14T04:59:58.173Z,31.80
2018-05-14T05:00:58.080Z,33.00
2018-05-14T05:01:58.101Z,33.70
2018-05-14T05:02:58.107Z,32.80
2018-05-14T05:03:57.990Z,39.00
2018-05-14T05:04:58.236Z,31.00
2018-05-14T05:05:58.147Z,37.80
2018-05-14T05:06:58.166Z,39.60
2018-05-14T05:07:58.051Z,41.40
2018-05-14T05:08:58.185Z,39.70
2018-05-14T05:09:58.302Z,40.70
2018-05-14T05:10:58.211Z,40.70
2018-05-14T05:11:58.097Z,41.40
2018-05-14T05:12:58.115Z,39.40
2018-05-14T05:13:58.259Z,49.20
2018-05-14T05:14:58.242Z,43.70
2018-05-14T05:15:58.285Z,47.40
2018-05-14T05:16:58.292Z,44.50
2018-05-14T05:17:58.304Z,47.50
2018-05-14T05:18:58.192Z,48.00
2018-05-14T05:19:58.215Z,43.80
2018-05-14T05:20:58.326Z,42.50
2018-05-14T05:21:58.360Z,44.80
2018-05-14T05:22:58.249Z,45.00
2018-05-14T05:23:58.388Z,42.50
2018-05-14T05:24:58.397Z,48.00
2018-05-14T05:25:58.287Z,38.30
2018-05-14T05:26:58.527Z,47.50
2018-05-14T05:27:58.445Z,52.40
2018-05-14T05:28:58.451Z,56.30
2018-05-14T05:29:58.472Z,76.40
2018-05-14T05:30:58.477Z,72.40
2018-05-14T05:31:58.461Z,82.60
2018-05-14T05:32:58.387Z,92.00
2018-05-14T05:33:58.522Z,100.50
2018-05-14T05:34:58.536Z,105.10
2018-05-14T05:35:58.427Z,98.10
2018-05-14T05:36:58.658Z,85.40
2018-05-14T05:37:58.583Z,82.90
2018-05-14T05:38:58.459Z,72.10
2018-05-14T05:39:58.595Z,73.70
2018-05-14T05:40:58.491Z,62.10
2018-05-14T05:41:58.729Z,46.20
2018-05-14T05:42:58.634Z,43.80
2018-05-14T05:43:58.654Z,37.10
2018-05-14T05:44:58.668Z,40.10
2018-05-14T05:45:58.673Z,35.20
2018-05-14T05:46:58.564Z,36.70
2018-05-14T05:47:58.682Z,35.40
2018-05-14T05:48:58.592Z,31.90
2018-05-14T05:49:58.731Z,33.80
2018-05-14T05:50:58.737Z,34.50
2018-05-14T05:51:58.760Z,33.50
2018-05-14T05:52:58.866Z,33.70
2018-05-14T05:53:58.778Z,37.60
2018-05-14T05:54:58.671Z,38.30
2018-05-14T05:55:58.679Z,36.70
2018-05-14T05:56:58.692Z,38.50
2018-05-14T05:57:58.937Z,39.00
2018-05-14T05:58:58.722Z,33.00
2018-05-14T05:59:58.852Z,33.10
2018-05-14T06:00:58.742Z,39.10
2018-05-14T06:01:58.883Z,39.40
2018-05-14T06:02:58.866Z,36.10
2018-05-14T06:03:58.907Z,34.40
2018-05-14T06:04:58.914Z,34.30
2018-05-14T06:05:58.934Z,37.50
2018-05-14T06:06:58.817Z,36.80
2018-05-14T06:07:58.952Z,37.20
2018-05-14T06:08:59.070Z,36.70
2018-05-14T06:09:58.860Z,36.30
2018-05-14T06:10:58.867Z,38.80
2018-05-14T06:11:59.007Z,35.70
2018-05-14T06:12:58.887Z,38.40
2018-05-14T06:13:59.006Z,31.60
2018-05-14T06:14:59.044Z,32.40
2018-05-14T06:15:59.051Z,29.30
2018-05-14T06:16:59.065Z,30.00
2018-05-14T06:17:59.079Z,33.80
2018-05-14T06:18:59.188Z,33.50
2018-05-14T06:19:58.983Z,32.20
2018-05-14T06:20:59.112Z,34.10
2018-05-14T06:21:59.126Z,33.10
2018-05-14T06:22:59.144Z,31.60
2018-05-14T06:23:59.127Z,31.20
2018-05-14T06:24:59.040Z,29.80
2018-05-14T06:25:59.188Z,28.70
2018-05-14T06:26:59.065Z,33.50
2018-05-14T06:27:59.200Z,36.90
2018-05-14T06:28:59.314Z,33.50
2018-05-14T06:29:59.225Z,31.60
2018-05-14T06:30:59.113Z,31.90
2018-05-14T06:31:59.254Z,31.20
2018-05-14T06:32:59.143Z,29.70
2018-05-14T06:33:59.373Z,28.40
2018-05-14T06:34:59.285Z,32.60
2018-05-14T06:35:59.303Z,30.70
2018-05-14T06:36:59.186Z,29.00
2018-05-14T06:37:59.196Z,33.70
2018-05-14T06:38:59.443Z,33.00
2018-05-14T06:39:59.354Z,30.10
2018-05-14T06:40:59.233Z,29.80
2018-05-14T06:41:59.251Z,31.20
2018-05-14T06:42:59.385Z,27.60
2018-05-14T06:44:11.048Z,29.00
2018-05-14T06:44:59.418Z,33.10
2018-05-14T06:45:59.298Z,32.40
2018-05-14T06:46:59.434Z,33.50
2018-05-14T06:47:59.322Z,32.00
2018-05-14T06:48:59.463Z,29.60
2018-05-14T06:49:59.486Z,30.50
2018-05-14T06:50:59.487Z,32.90
2018-05-14T06:51:59.370Z,32.00
2018-05-14T06:52:59.387Z,31.40
2018-05-14T06:53:59.526Z,30.20
2018-05-14T06:54:59.513Z,31.00
2018-05-14T06:55:59.425Z,27.70
2018-05-14T06:56:59.554Z,30.40
2018-05-14T06:57:59.566Z,31.10
2018-05-14T06:58:59.462Z,30.60
2018-05-14T06:59:59.575Z,28.30
2018-05-14T07:00:59.603Z,27.50
2018-05-14T07:01:59.617Z,25.70
2018-05-14T07:02:59.630Z,25.70
2018-05-14T07:03:59.648Z,25.40
2018-05-14T07:04:59.629Z,26.00
2018-05-14T07:05:59.672Z,23.50
2018-05-14T07:06:59.549Z,20.00
2018-05-14T07:07:59.696Z,24.60
2018-05-14T07:08:59.580Z,21.00
2018-05-14T07:09:59.814Z,24.20
2018-05-14T07:10:59.731Z,19.40
2018-05-14T07:11:59.738Z,21.40
2018-05-14T07:12:59.750Z,22.80
2018-05-14T07:13:59.768Z,21.70
2018-05-14T07:14:59.876Z,20.20
2018-05-14T07:15:59.671Z,18.60
2018-05-14T07:16:59.808Z,17.60
2018-05-14T07:17:59.693Z,20.10
2018-05-14T07:18:59.830Z,18.90
2018-05-14T07:19:59.947Z,16.20
2018-05-14T07:20:59.852Z,19.80
2018-05-14T07:21:59.867Z,21.20
2018-05-14T07:22:59.879Z,16.90
2018-05-14T07:23:59.774Z,16.70
2018-05-14T07:25:00.007Z,13.40
2018-05-14T07:25:59.934Z,12.10
2018-05-14T07:26:59.929Z,16.40
2018-05-14T07:27:59.950Z,15.30
2018-05-14T07:28:59.954Z,14.90
2018-05-14T07:29:59.943Z,17.00
2018-05-14T07:30:59.986Z,14.80
2018-05-14T07:31:59.869Z,16.60
2018-05-14T07:32:59.887Z,14.30
2018-05-14T07:34:00.295Z,17.30
2018-05-14T07:35:00.257Z,14.80
2018-05-14T07:36:00.129Z,16.50
2018-05-14T07:37:00.126Z,14.30
2018-05-14T07:38:00.118Z,16.00
2018-05-14T07:39:00.195Z,15.00
2018-05-14T07:40:00.206Z,12.50
2018-05-14T07:41:00.178Z,13.90
2018-05-14T07:42:00.121Z,13.00
2018-05-14T07:43:00.167Z,12.70
2018-05-14T07:44:00.166Z,14.50
2018-05-14T07:45:00.136Z,18.80
2018-05-14T07:46:00.193Z,15.40
2018-05-14T07:47:00.062Z,16.40
2018-05-14T07:48:00.206Z,15.40
2018-05-14T07:49:00.088Z,13.30
2018-05-14T07:50:00.329Z,12.60
2018-05-14T07:51:00.110Z,13.30
2018-05-14T07:52:00.131Z,12.80
2018-05-14T07:53:00.263Z,12.00
2018-05-14T07:54:00.288Z,12.90
2018-05-14T07:55:00.264Z,13.70
2018-05-14T07:56:00.307Z,12.50
2018-05-14T07:57:00.320Z,13.10
2018-05-14T07:58:00.333Z,14.10
2018-05-14T07:59:00.218Z,13.90
2018-05-14T08:00:00.558Z,14.10
2018-05-14T08:01:00.365Z,14.30
2018-05-14T08:02:00.384Z,17.00
2018-05-14T08:03:00.390Z,10.60
2018-05-14T08:04:00.282Z,14.40
2018-05-14T08:05:00.292Z,15.10
2018-05-14T08:06:00.540Z,13.40
2018-05-14T08:07:00.442Z,12.90
2018-05-14T08:08:00.455Z,13.50
2018-05-14T08:09:00.475Z,14.70
2018-05-14T08:10:00.358Z,14.80
2018-05-14T08:11:00.607Z,15.50
2018-05-14T08:12:00.512Z,15.20
2018-05-14T08:13:00.521Z,13.60
2018-05-14T08:14:00.534Z,17.00
2018-05-14T08:15:00.426Z,15.40
2018-05-14T08:16:00.659Z,13.60
2018-05-14T08:17:00.573Z,20.10
2018-05-14T08:18:00.462Z,15.30
2018-05-14T08:19:00.604Z,14.60
2018-05-14T08:20:00.490Z,17.00
2018-05-14T08:21:00.722Z,16.60
2018-05-14T08:22:00.640Z,16.90
2018-05-14T08:23:00.647Z,15.00
2018-05-14T08:24:00.661Z,17.00
2018-05-14T08:25:00.675Z,17.60
2018-05-14T08:26:00.662Z,15.10
2018-05-14T08:27:00.703Z,20.10
2018-05-14T08:28:00.710Z,18.50
2018-05-14T08:29:00.723Z,19.10
2018-05-14T08:30:00.736Z,17.80
2018-05-14T08:31:00.847Z,15.60
2018-05-14T08:32:00.765Z,18.10
2018-05-14T08:33:00.779Z,16.00
2018-05-14T08:34:00.785Z,20.10
2018-05-14T08:35:00.809Z,18.20
2018-05-14T08:36:00.912Z,21.70
2018-05-14T08:37:00.909Z,16.00
2018-05-14T08:38:00.843Z,23.20
2018-05-14T08:39:00.847Z,18.70
2018-05-14T08:40:00.869Z,20.00
2018-05-14T08:41:00.972Z,16.10
2018-05-14T08:42:00.891Z,17.90
2018-05-14T08:43:00.904Z,21.00
2018-05-14T08:44:00.916Z,21.00
2018-05-14T08:45:00.921Z,18.60
2018-05-14T08:46:00.916Z,22.40
2018-05-14T08:47:00.828Z,24.00
2018-05-14T08:48:00.937Z,19.40
2018-05-14T08:49:00.971Z,20.20
2018-05-14T08:50:00.985Z,17.90
2018-05-14T08:51:01.097Z,23.60
2018-05-14T08:52:01.008Z,20.80
2018-05-14T08:53:01.029Z,22.70
2018-05-14T08:54:00.909Z,20.30
2018-05-14T08:55:01.052Z,20.80
2018-05-14T08:56:01.157Z,23.90
2018-05-14T08:57:00.953Z,20.40
2018-05-14T08:58:01.084Z,18.30
2018-05-14T08:59:00.974Z,25.50
2018-05-14T09:00:01.178Z,18.20
2018-05-14T09:01:01.218Z,22.10
2018-05-14T09:02:01.132Z,19.00
2018-05-14T09:03:01.144Z,19.50
2018-05-14T09:04:01.032Z,20.40
2018-05-14T09:05:01.044Z,23.70
2018-05-14T09:06:01.285Z,23.60
2018-05-14T09:07:01.069Z,21.50
2018-05-14T09:08:01.204Z,22.70
2018-05-14T09:09:01.216Z,20.50
2018-05-14T09:10:01.114Z,21.30
2018-05-14T09:11:01.220Z,22.70
2018-05-14T09:12:01.131Z,24.70
2018-05-14T09:13:01.266Z,23.50
2018-05-14T09:14:01.285Z,26.70
2018-05-14T09:15:01.300Z,23.60
2018-05-14T09:16:01.287Z,26.40
2018-05-14T09:17:01.193Z,24.00
2018-05-14T09:18:01.328Z,24.20
2018-05-14T09:19:01.211Z,23.00
2018-05-14T09:20:01.350Z,25.60
2018-05-14T09:21:01.516Z,24.60
2018-05-14T09:22:01.383Z,28.70
2018-05-14T09:23:01.393Z,28.40
2018-05-14T09:24:01.280Z,28.10
2018-05-14T09:25:01.293Z,28.10
2018-05-14T09:26:01.424Z,30.00
2018-05-14T09:27:01.536Z,27.60
2018-05-14T09:28:01.320Z,31.60
2018-05-14T09:29:01.337Z,28.40
2018-05-14T09:30:01.471Z,28.00
2018-05-14T09:31:01.485Z,36.40
2018-05-14T09:32:01.646Z,30.90
2018-05-14T09:33:01.508Z,38.20
2018-05-14T09:34:01.523Z,35.60
2018-05-14T09:35:01.421Z,38.20
2018-05-14T09:36:01.548Z,30.20
2018-05-14T09:37:01.655Z,35.30
2018-05-14T09:38:01.569Z,33.60
2018-05-14T09:39:01.580Z,35.40
2018-05-14T09:40:01.596Z,32.90
2018-05-14T09:41:01.606Z,37.90
2018-05-14T09:42:01.596Z,35.30
2018-05-14T09:43:01.633Z,35.40
2018-05-14T09:44:01.517Z,36.40
2018-05-14T09:45:01.660Z,39.70
2018-05-14T09:46:01.542Z,39.80
2018-05-14T09:47:01.685Z,37.90
2018-05-14T09:48:01.790Z,37.50
2018-05-14T09:49:01.588Z,35.10
2018-05-14T09:50:01.603Z,35.00
2018-05-14T09:51:01.724Z,30.50
2018-05-14T09:52:01.616Z,32.30
2018-05-14T09:53:01.757Z,35.70
2018-05-14T09:54:01.741Z,33.20
2018-05-14T09:55:01.776Z,31.60
2018-05-14T09:56:01.788Z,33.50
2018-05-14T09:57:01.680Z,30.60
2018-05-14T09:58:01.812Z,28.60
2018-05-14T09:59:01.799Z,30.40
2018-05-14T10:00:01.836Z,29.70
2018-05-14T10:01:01.853Z,23.50
2018-05-14T10:02:01.860Z,25.30
2018-05-14T10:03:01.878Z,28.30
2018-05-14T10:04:01.991Z,21.90
2018-05-14T10:05:01.785Z,19.50
2018-05-14T10:06:01.911Z,21.20
2018-05-14T10:07:01.924Z,20.20
2018-05-14T10:08:01.942Z,23.90
2018-05-14T10:09:02.049Z,21.10
2018-05-14T10:10:01.971Z,18.90
2018-05-14T10:11:01.978Z,20.40
2018-05-14T10:12:01.990Z,19.20
2018-05-14T10:13:02.075Z,15.70
2018-05-14T10:14:02.121Z,18.90
2018-05-14T10:15:01.914Z,18.80
2018-05-14T10:16:01.916Z,15.90
2018-05-14T10:17:02.057Z,18.30
2018-05-14T10:18:02.072Z,18.00
2018-05-14T10:19:02.067Z,14.70
2018-05-14T10:20:02.098Z,14.40
2018-05-14T10:21:02.120Z,16.60
2018-05-14T10:22:02.128Z,18.90
2018-05-14T10:23:02.148Z,17.40
2018-05-14T10:24:02.190Z,21.70
2018-05-14T10:25:02.051Z,18.00
2018-05-14T10:26:02.188Z,19.20
2018-05-14T10:27:02.201Z,21.60
2018-05-14T10:28:02.089Z,19.00
2018-05-14T10:29:02.329Z,16.70
2018-05-14T10:30:02.251Z,18.10
2018-05-14T10:31:02.261Z,18.60
2018-05-14T10:32:02.191Z,17.90
2018-05-14T10:33:02.177Z,22.10
2018-05-14T10:34:02.406Z,17.80
2018-05-14T10:35:02.196Z,17.30
2018-05-14T10:36:02.342Z,15.40
2018-05-14T10:37:02.351Z,16.90
2018-05-14T10:38:02.272Z,19.50
2018-05-14T10:39:02.361Z,17.50
2018-05-14T10:40:02.397Z,16.20
2018-05-14T10:41:02.410Z,19.10
2018-05-14T10:42:02.306Z,18.10
2018-05-14T10:43:02.442Z,19.90
2018-05-14T10:44:02.485Z,17.90
2018-05-14T10:45:02.469Z,19.70
2018-05-14T10:46:02.487Z,16.00
2018-05-14T10:47:02.390Z,19.20
2018-05-14T10:48:02.390Z,17.40
2018-05-14T10:49:02.636Z,21.40
2018-05-14T10:50:02.420Z,18.60
2018-05-14T10:51:02.559Z,22.20
2018-05-14T10:52:02.454Z,23.60
2018-05-14T10:53:02.587Z,16.80
2018-05-14T10:54:02.707Z,16.40
2018-05-14T10:55:02.617Z,15.90
2018-05-14T10:56:02.630Z,22.60
2018-05-14T10:57:02.655Z,20.50
2018-05-14T10:58:02.659Z,20.50
2018-05-14T10:59:02.642Z,15.60
2018-05-14T11:00:02.564Z,19.20
2018-05-14T11:01:02.585Z,20.60
2018-05-14T11:02:02.729Z,21.80
2018-05-14T11:03:02.731Z,20.00
2018-05-14T11:04:02.822Z,19.60
2018-05-14T11:05:02.766Z,24.90
2018-05-14T11:06:02.775Z,21.40
2018-05-14T11:07:02.796Z,22.50
2018-05-14T11:08:02.805Z,24.20
2018-05-14T11:09:02.919Z,22.90
2018-05-14T11:10:02.841Z,28.00
2018-05-14T11:11:02.727Z,25.80
2018-05-14T11:12:02.872Z,29.10
2018-05-14T11:13:02.768Z,26.60
2018-05-14T11:14:02.885Z,34.10
2018-05-14T11:15:02.909Z,35.00
2018-05-14T11:16:02.804Z,39.10
2018-05-14T11:17:02.939Z,34.30
2018-05-14T11:18:02.959Z,36.80
2018-05-14T11:19:02.945Z,37.60
2018-05-14T11:20:02.986Z,37.10
2018-05-14T11:21:03.003Z,34.60
2018-05-14T11:22:03.019Z,36.30
2018-05-14T11:23:02.902Z,33.00
2018-05-14T11:24:03.142Z,30.60
2018-05-14T11:25:03.056Z,37.80
2018-05-14T11:26:03.071Z,35.50
2018-05-14T11:27:02.965Z,33.10
2018-05-14T11:28:02.984Z,31.90
2018-05-14T11:29:03.101Z,29.10
2018-05-14T11:30:03.134Z,27.50
2018-05-14T11:31:03.031Z,31.90
2018-05-14T11:32:03.040Z,28.00
2018-05-14T11:33:03.184Z,25.70
2018-05-14T11:34:03.171Z,29.80
2018-05-14T11:35:03.208Z,24.40
2018-05-14T11:36:03.232Z,26.10
2018-05-14T11:37:03.243Z,23.50
2018-05-14T11:38:03.260Z,25.60
2018-05-14T11:39:03.201Z,26.80
2018-05-14T11:40:03.180Z,27.40
2018-05-14T11:41:03.309Z,22.90
2018-05-14T11:42:03.327Z,17.90
2018-05-14T11:43:03.212Z,20.30
2018-05-14T11:44:03.464Z,19.10
2018-05-14T11:45:03.371Z,14.40
2018-05-14T11:46:03.262Z,13.30
2018-05-14T11:47:03.271Z,14.60
2018-05-14T11:48:03.293Z,14.50
2018-05-14T11:49:03.540Z,15.60
2018-05-14T11:50:03.322Z,16.50
2018-05-14T11:51:03.470Z,12.90
2018-05-14T11:52:03.354Z,13.70
2018-05-14T11:53:03.380Z,12.70
2018-05-14T11:54:03.617Z,10.10
2018-05-14T11:55:03.405Z,8.00
2018-05-14T11:56:03.416Z,11.20
2018-05-14T11:57:03.563Z,10.30
2018-05-14T11:58:03.579Z,12.30
2018-05-14T11:59:03.700Z,9.10
2018-05-14T12:00:03.613Z,10.80
2018-05-14T12:01:03.504Z,10.80
2018-05-14T12:02:03.647Z,8.70
2018-05-14T12:03:03.597Z,9.20
2018-05-14T12:04:03.658Z,10.10
2018-05-14T12:05:03.576Z,10.30
2018-05-14T12:06:03.714Z,10.20
2018-05-14T12:07:03.605Z,10.80
2018-05-14T12:08:03.626Z,10.70
2018-05-14T12:09:03.739Z,9.00
2018-05-14T12:10:03.790Z,13.00
2018-05-14T12:11:03.676Z,9.90
2018-05-14T12:12:03.871Z,9.40
2018-05-14T12:13:03.837Z,9.40
2018-05-14T12:14:03.949Z,11.80
2018-05-14T12:15:03.871Z,9.40
2018-05-14T12:16:03.897Z,9.70
2018-05-14T12:17:03.785Z,11.70
2018-05-14T12:18:03.903Z,9.00
2018-05-14T12:19:04.037Z,11.80
2018-05-14T12:20:03.954Z,9.60
2018-05-14T12:21:03.972Z,12.50
2018-05-14T12:22:03.991Z,9.50
2018-05-14T12:23:04.013Z,11.70
2018-05-14T12:24:04.102Z,8.60
2018-05-14T12:25:04.044Z,10.20
2018-05-14T12:26:04.065Z,7.70
2018-05-14T12:27:04.083Z,7.60
2018-05-14T12:28:03.975Z,6.00
2018-05-14T12:29:04.269Z,6.90
2018-05-14T12:30:04.007Z,7.40
2018-05-14T12:31:04.152Z,10.40
2018-05-14T12:32:04.189Z,6.40
2018-05-14T12:33:04.060Z,7.30
2018-05-14T12:34:04.310Z,8.20
2018-05-14T12:35:04.096Z,9.00
2018-05-14T12:36:04.241Z,8.30
2018-05-14T12:37:04.261Z,6.90
2018-05-14T12:38:04.286Z,8.10
2018-05-14T12:39:04.272Z,9.30
2018-05-14T12:40:04.191Z,7.20
2018-05-14T12:41:04.334Z,7.60
2018-05-14T12:42:04.363Z,6.50
2018-05-14T12:43:04.369Z,5.60
2018-05-14T12:44:04.408Z,8.70
2018-05-14T12:45:04.511Z,9.70
2018-05-14T12:46:04.525Z,7.90
2018-05-14T12:47:04.448Z,9.40
2018-05-14T12:48:04.460Z,7.30
2018-05-14T12:49:04.362Z,6.50
2018-05-14T12:50:04.604Z,7.20
2018-05-14T12:51:04.399Z,5.80
2018-05-14T12:53:04.554Z,7.60
2018-05-14T12:54:04.451Z,6.60
2018-05-14T12:55:04.645Z,6.00
2018-05-14T12:56:04.608Z,5.40
2018-05-14T12:57:04.631Z,5.60